createdAt,value
2024-04-22T00:00:09.037Z,102066.59
2024-04-22T00:01:10.855Z,102071.44
2024-04-22T00:02:12.556Z,102063.19
2024-04-22T00:03:14.304Z,102060.34
2024-04-22T00:04:16.028Z,102071.91
2024-04-22T00:05:17.738Z,102057.66
2024-04-22T00:06:19.406Z,102064.88
2024-04-22T00:07:21.063Z,102066.69
2024-04-22T00:08:22.699Z,102059.25
2024-04-22T00:09:24.390Z,102065.78
2024-04-22T00:10:26.059Z,102056.84
2024-04-22T00:11:27.768Z,102066.34
2024-04-22T00:12:32.315Z,102060.81
2024-04-22T00:13:35.034Z,102057.97
2024-04-22T00:14:36.876Z,102065.22
2024-04-22T00:15:38.520Z,102062.38
2024-04-22T00:16:40.608Z,102062.38
2024-04-22T00:17:42.370Z,102053.78
2024-04-22T00:18:44.182Z,102056.72
2024-04-22T00:19:45.903Z,102057.97
2024-04-22T00:20:47.708Z,102053.34
2024-04-22T00:21:49.410Z,102058.44
2024-04-22T00:22:51.053Z,102058.53
2024-04-22T00:23:52.672Z,102059.22
2024-04-22T00:24:54.316Z,102052.63
2024-04-22T00:25:55.993Z,102056.69
2024-04-22T00:26:57.624Z,102051.91
2024-04-22T00:28:01.892Z,102048.06
2024-04-22T00:29:03.553Z,102046.69
2024-04-22T00:30:06.153Z,102056.91
2024-04-22T00:31:07.859Z,102052.72
2024-04-22T00:32:09.570Z,102053.50
2024-04-22T00:33:11.430Z,102046.59
2024-04-22T00:34:13.174Z,102046.38
2024-04-22T00:35:14.935Z,102055.09
2024-04-22T00:36:16.539Z,102045.56
2024-04-22T00:37:18.203Z,102053.72
2024-04-22T00:38:19.834Z,102051.78
2024-04-22T00:39:21.458Z,102050.09
2024-04-22T00:40:23.143Z,102059.72
2024-04-22T00:41:24.899Z,102064.72
2024-04-22T00:42:26.530Z,102058.47
2024-04-22T00:43:30.787Z,102063.25
2024-04-22T00:44:32.758Z,102061.56
2024-04-22T00:45:34.660Z,102061.38
2024-04-22T00:46:36.442Z,102060.13
2024-04-22T00:47:38.546Z,102061.59
2024-04-22T00:48:40.247Z,102065.69
2024-04-22T00:49:42.089Z,102057.53
2024-04-22T00:50:44.604Z,102060.03
2024-04-22T00:51:46.780Z,102069.72
2024-04-22T00:52:48.504Z,102061.13
2024-04-22T00:53:50.761Z,102056.72
2024-04-22T00:54:52.484Z,102061.84
2024-04-22T00:55:56.124Z,102062.19
2024-04-22T00:56:57.855Z,102065.00
2024-04-22T00:58:04.065Z,102068.84
2024-04-22T00:59:08.648Z,102062.63
2024-04-22T01:00:11.455Z,102066.34
2024-04-22T01:01:13.209Z,102068.03
2024-04-22T01:02:15.525Z,102074.47
2024-04-22T01:03:17.222Z,102067.78
2024-04-22T01:04:20.078Z,102069.59
2024-04-22T01:05:21.746Z,102066.13
2024-04-22T01:06:23.376Z,102073.03
2024-04-22T01:07:25.379Z,102065.97
2024-04-22T01:08:27.111Z,102065.97
2024-04-22T01:09:28.790Z,102066.09
2024-04-22T01:10:32.511Z,102069.91
2024-04-22T01:11:34.588Z,102061.69
2024-04-22T01:12:36.355Z,102059.22
2024-04-22T01:13:38.569Z,102065.06
2024-04-22T01:14:42.959Z,102065.97
2024-04-22T01:15:44.559Z,102063.63
2024-04-22T01:16:53.433Z,102075.38
2024-04-22T01:17:55.227Z,102074.66
2024-04-22T01:18:56.901Z,102062.25
2024-04-22T01:19:58.523Z,102065.66
2024-04-22T01:21:00.136Z,102062.78
2024-04-22T01:22:04.808Z,102067.88
2024-04-22T01:23:06.495Z,102065.47
2024-04-22T01:24:08.395Z,102076.59
2024-04-22T01:25:10.681Z,102072.31
2024-04-22T01:26:13.195Z,102073.91
2024-04-22T01:27:15.303Z,102061.66
2024-04-22T01:28:16.993Z,102070.25
2024-04-22T01:29:18.626Z,102067.63
2024-04-22T01:30:20.320Z,102073.19
2024-04-22T01:31:21.957Z,102070.94
2024-04-22T01:32:23.665Z,102065.03
2024-04-22T01:33:25.342Z,102073.53
2024-04-22T01:34:26.990Z,102067.13
2024-04-22T01:35:28.598Z,102069.72
2024-04-22T01:36:30.241Z,102077.41
2024-04-22T01:37:34.850Z,102062.94
2024-04-22T01:38:36.521Z,102069.19
2024-04-22T01:39:38.184Z,102067.06
2024-04-22T01:40:39.865Z,102067.84
2024-04-22T01:41:41.688Z,102062.31
2024-04-22T01:42:43.309Z,102069.28
2024-04-22T01:43:45.031Z,102070.78
2024-04-22T01:44:46.685Z,102073.25
2024-04-22T01:45:48.331Z,102070.66
2024-04-22T01:46:50.030Z,102068.19
2024-04-22T01:47:51.798Z,102058.50
2024-04-22T01:48:53.465Z,102069.00
2024-04-22T01:49:55.124Z,102061.09
2024-04-22T01:50:56.748Z,102062.88
2024-04-22T01:51:58.453Z,102066.03
2024-04-22T01:53:02.764Z,102066.81
2024-04-22T01:54:04.399Z,102069.41
2024-04-22T01:55:09.832Z,102066.34
2024-04-22T01:56:12.888Z,102069.38
2024-04-22T01:57:14.543Z,102072.41
2024-04-22T01:58:16.202Z,102068.09
2024-04-22T01:59:18.209Z,102057.53
2024-04-22T02:00:19.820Z,102057.19
2024-04-22T02:01:21.433Z,102061.78
2024-04-22T02:02:23.103Z,102064.72
2024-04-22T02:03:24.727Z,102063.56
2024-04-22T02:04:26.396Z,102067.59
2024-04-22T02:05:28.027Z,102068.59
2024-04-22T02:06:29.677Z,102068.69
2024-04-22T02:07:31.326Z,102071.41
2024-04-22T02:08:35.592Z,102068.06
2024-04-22T02:09:37.330Z,102074.84
2024-04-22T02:10:39.015Z,102072.13
2024-04-22T02:11:40.792Z,102070.75
2024-04-22T02:12:42.443Z,102070.34
2024-04-22T02:13:44.214Z,102078.59
2024-04-22T02:14:45.887Z,102076.28
2024-04-22T02:15:47.521Z,102071.44
2024-04-22T02:16:49.395Z,102075.09
2024-04-22T02:17:51.658Z,102077.38
2024-04-22T02:18:54.756Z,102078.28
2024-04-22T02:19:56.418Z,102075.38
2024-04-22T02:20:58.157Z,102079.56
2024-04-22T02:21:59.799Z,102088.13
2024-04-22T02:23:02.282Z,102091.88
2024-04-22T02:24:06.839Z,102075.03
2024-04-22T02:25:08.820Z,102076.34
2024-04-22T02:26:10.463Z,102092.94
2024-04-22T02:27:12.080Z,102083.06
2024-04-22T02:28:13.938Z,102078.59
2024-04-22T02:29:15.551Z,102088.03
2024-04-22T02:30:17.268Z,102094.84
2024-04-22T02:31:19.229Z,102075.72
2024-04-22T02:32:20.836Z,102083.41
2024-04-22T02:33:22.602Z,102080.28
2024-04-22T02:34:24.303Z,102083.19
2024-04-22T02:35:25.988Z,102078.59
2024-04-22T02:36:27.612Z,102076.91
2024-04-22T02:37:29.287Z,102085.94
2024-04-22T02:38:31.032Z,102077.38
2024-04-22T02:39:35.272Z,102082.94
2024-04-22T02:40:37.659Z,102086.81
2024-04-22T02:41:40.096Z,102081.25
2024-04-22T02:42:41.948Z,102082.34
2024-04-22T02:43:43.598Z,102077.69
2024-04-22T02:44:45.257Z,102078.50
2024-04-22T02:45:46.903Z,102077.50
2024-04-22T02:46:48.545Z,102075.25
2024-04-22T02:47:50.344Z,102067.97
2024-04-22T02:48:52.118Z,102069.81
2024-04-22T02:49:53.735Z,102074.59
2024-04-22T02:50:55.353Z,102061.91
2024-04-22T02:51:56.961Z,102075.56
2024-04-22T02:52:58.612Z,102078.44
2024-04-22T02:54:00.290Z,102073.38
2024-04-22T02:55:04.893Z,102078.84
2024-04-22T02:56:07.007Z,102074.31
2024-04-22T02:57:08.652Z,102080.28
2024-04-22T02:58:10.309Z,102074.56
2024-04-22T02:59:11.939Z,102066.22
2024-04-22T03:00:14.002Z,102067.78
2024-04-22T03:01:15.708Z,102071.38
2024-04-22T03:02:17.404Z,102069.81
2024-04-22T03:03:19.051Z,102071.38
2024-04-22T03:04:20.736Z,102073.88
2024-04-22T03:05:22.510Z,102064.56
2024-04-22T03:06:24.157Z,102064.56
2024-04-22T03:07:26.169Z,102071.28
2024-04-22T03:08:27.803Z,102073.66
2024-04-22T03:09:29.462Z,102081.97
2024-04-22T03:10:37.382Z,102076.66
2024-04-22T03:11:39.098Z,102082.75
2024-04-22T03:12:40.847Z,102078.06
2024-04-22T03:13:42.523Z,102079.66
2024-04-22T03:14:44.185Z,102077.22
2024-04-22T03:15:46.286Z,102073.38
2024-04-22T03:16:48.147Z,102081.66
2024-04-22T03:17:50.012Z,102075.91
2024-04-22T03:18:51.727Z,102074.78
2024-04-22T03:19:53.680Z,102077.28
2024-04-22T03:20:55.288Z,102076.91
2024-04-22T03:21:56.976Z,102079.16
2024-04-22T03:22:58.570Z,102078.09
2024-04-22T03:24:00.186Z,102076.00
2024-04-22T03:25:01.809Z,102076.41
2024-04-22T03:26:06.206Z,102078.25
2024-04-22T03:27:08.035Z,102076.97
2024-04-22T03:28:09.675Z,102070.72
2024-04-22T03:29:11.366Z,102076.69
2024-04-22T03:30:13.016Z,102076.91
2024-04-22T03:31:14.725Z,102067.81
2024-04-22T03:32:16.460Z,102075.63
2024-04-22T03:33:18.845Z,102069.91
2024-04-22T03:34:20.504Z,102077.00
2024-04-22T03:35:22.167Z,102071.00
2024-04-22T03:36:23.813Z,102069.59
2024-04-22T03:37:25.497Z,102072.88
2024-04-22T03:38:27.128Z,102073.91
2024-04-22T03:39:28.882Z,102078.84
2024-04-22T03:40:30.579Z,102072.63
2024-04-22T03:41:34.937Z,102071.22
2024-04-22T03:42:36.580Z,102079.22
2024-04-22T03:43:38.373Z,102076.47
2024-04-22T03:44:40.072Z,102070.59
2024-04-22T03:45:41.696Z,102059.41
2024-04-22T03:46:43.438Z,102066.66
2024-04-22T03:47:45.394Z,102067.69
2024-04-22T03:48:47.056Z,102070.31
2024-04-22T03:49:48.675Z,102069.22
2024-04-22T03:50:50.279Z,102072.28
2024-04-22T03:51:51.937Z,102077.34
2024-04-22T03:52:53.581Z,102074.88
2024-04-22T03:53:55.203Z,102080.19
2024-04-22T03:54:56.871Z,102073.19
2024-04-22T03:55:58.467Z,102075.09
2024-04-22T03:57:02.727Z,102072.75
2024-04-22T03:58:04.744Z,102065.22
2024-04-22T03:59:06.394Z,102065.19
2024-04-22T04:00:08.602Z,102066.69
2024-04-22T04:01:13.685Z,102066.50
2024-04-22T04:02:15.411Z,102073.00
2024-04-22T04:03:17.042Z,102072.75
2024-04-22T04:04:19.333Z,102063.81
2024-04-22T04:05:23.091Z,102064.88
2024-04-22T04:06:25.038Z,102063.84
2024-04-22T04:07:26.706Z,102062.31
2024-04-22T04:08:28.340Z,102058.72
2024-04-22T04:09:29.968Z,102062.44
2024-04-22T04:10:31.607Z,102069.97
2024-04-22T04:11:33.487Z,102067.63
2024-04-22T04:12:37.761Z,102075.59
2024-04-22T04:13:40.394Z,102071.31
2024-04-22T04:14:42.288Z,102068.19
2024-04-22T04:15:43.904Z,102069.25
2024-04-22T04:16:46.022Z,102067.16
2024-04-22T04:17:47.743Z,102072.63
2024-04-22T04:18:49.382Z,102069.25
2024-04-22T04:19:51.049Z,102076.38
2024-04-22T04:20:52.736Z,102076.66
2024-04-22T04:21:55.024Z,102071.34
2024-04-22T04:22:56.658Z,102070.19
2024-04-22T04:23:58.336Z,102077.44
2024-04-22T04:24:59.972Z,102080.53
2024-04-22T04:26:01.708Z,102075.91
2024-04-22T04:27:03.552Z,102069.94
2024-04-22T04:28:08.173Z,102074.38
2024-04-22T04:29:09.833Z,102069.97
2024-04-22T04:30:11.793Z,102079.91
2024-04-22T04:31:13.428Z,102073.41
2024-04-22T04:32:15.040Z,102064.44
2024-04-22T04:33:16.693Z,102060.06
2024-04-22T04:34:18.386Z,102061.88
2024-04-22T04:35:20.055Z,102065.63
2024-04-22T04:36:21.723Z,102070.16
2024-04-22T04:37:23.339Z,102061.72
2024-04-22T04:38:25.073Z,102061.63
2024-04-22T04:39:26.991Z,102066.50
2024-04-22T04:40:28.618Z,102060.25
2024-04-22T04:41:30.274Z,102063.34
2024-04-22T04:42:32.217Z,102056.44
2024-04-22T04:43:36.503Z,102061.78
2024-04-22T04:44:38.243Z,102060.22
2024-04-22T04:45:39.877Z,102060.75
2024-04-22T04:46:41.599Z,102066.50
2024-04-22T04:47:43.347Z,102063.81
2024-04-22T04:48:45.010Z,102062.94
2024-04-22T04:49:47.035Z,102065.94
2024-04-22T04:50:49.527Z,102065.19
2024-04-22T04:51:51.180Z,102062.81
2024-04-22T04:52:52.781Z,102061.13
2024-04-22T04:53:54.404Z,102061.22
2024-04-22T04:54:56.029Z,102064.81
2024-04-22T04:55:57.706Z,102064.22
2024-04-22T04:56:59.334Z,102058.66
2024-04-22T04:58:00.970Z,102061.72
2024-04-22T04:59:05.180Z,102061.56
2024-04-22T05:00:08.456Z,102058.22
2024-04-22T05:01:10.242Z,102060.25
2024-04-22T05:02:12.006Z,102065.53
2024-04-22T05:03:13.702Z,102068.22
2024-04-22T05:04:15.373Z,102067.03
2024-04-22T05:05:17.237Z,102067.16
2024-04-22T05:06:18.878Z,102071.94
2024-04-22T05:07:20.535Z,102072.84
2024-04-22T05:08:22.165Z,102076.72
2024-04-22T05:09:23.844Z,102083.41
2024-04-22T05:10:25.912Z,102075.47
2024-04-22T05:11:27.577Z,102078.06
2024-04-22T05:12:29.270Z,102087.28
2024-04-22T05:13:30.950Z,102082.81
2024-04-22T05:14:35.221Z,102089.50
2024-04-22T05:15:37.076Z,102083.38
2024-04-22T05:16:38.743Z,102080.16
2024-04-22T05:17:40.429Z,102092.97
2024-04-22T05:18:44.206Z,102086.59
2024-04-22T05:19:46.082Z,102092.28
2024-04-22T05:20:47.759Z,102090.03
2024-04-22T05:21:49.376Z,102084.66
2024-04-22T05:22:51.076Z,102091.47
2024-04-22T05:23:52.715Z,102081.53
2024-04-22T05:24:54.343Z,102086.97
2024-04-22T05:25:56.065Z,102083.34
2024-04-22T05:26:57.749Z,102079.25
2024-04-22T05:27:59.375Z,102084.56
2024-04-22T05:29:01.043Z,102089.22
2024-04-22T05:30:06.197Z,102092.09
2024-04-22T05:31:07.860Z,102089.75
2024-04-22T05:32:09.838Z,102083.19
2024-04-22T05:33:11.562Z,102091.03
2024-04-22T05:34:13.276Z,102082.47
2024-04-22T05:35:14.981Z,102090.28
2024-04-22T05:36:16.669Z,102088.72
2024-04-22T05:37:19.384Z,102075.97
2024-04-22T05:38:21.118Z,102085.06
2024-04-22T05:39:22.826Z,102082.91
2024-04-22T05:40:24.514Z,102080.19
2024-04-22T05:41:26.163Z,102080.97
2024-04-22T05:42:27.850Z,102081.38
2024-04-22T05:43:29.552Z,102082.97
2024-04-22T05:44:31.239Z,102079.31
2024-04-22T05:45:35.541Z,102080.56
2024-04-22T05:46:37.341Z,102079.66
2024-04-22T05:47:39.210Z,102081.13
2024-04-22T05:48:41.006Z,102077.47
2024-04-22T05:49:42.770Z,102078.63
2024-04-22T05:50:44.430Z,102084.25
2024-04-22T05:51:46.045Z,102079.47
2024-04-22T05:52:47.723Z,102080.06
2024-04-22T05:53:49.379Z,102082.91
2024-04-22T05:54:51.000Z,102085.94
2024-04-22T05:55:52.793Z,102077.22
2024-04-22T05:56:54.438Z,102085.16
2024-04-22T05:57:56.077Z,102082.38
2024-04-22T05:58:57.668Z,102078.91
2024-04-22T05:59:59.279Z,102077.78
2024-04-22T06:01:03.811Z,102067.69
2024-04-22T06:02:05.508Z,102074.41
2024-04-22T06:03:07.222Z,102075.53
2024-04-22T06:04:09.273Z,102082.53
2024-04-22T06:05:11.019Z,102074.81
2024-04-22T06:06:12.653Z,102073.81
2024-04-22T06:07:14.344Z,102074.88
2024-04-22T06:08:16.023Z,102079.06
2024-04-22T06:09:17.725Z,102078.38
2024-04-22T06:10:19.449Z,102073.03
2024-04-22T06:11:21.131Z,102066.56
2024-04-22T06:12:22.859Z,102065.31
2024-04-22T06:13:24.495Z,102067.47
2024-04-22T06:14:26.173Z,102060.88
2024-04-22T06:15:27.852Z,102068.66
2024-04-22T06:16:32.360Z,102062.72
2024-04-22T06:17:37.107Z,102058.66
2024-04-22T06:18:39.113Z,102062.34
2024-04-22T06:19:41.077Z,102060.69
2024-04-22T06:20:42.844Z,102058.03
2024-04-22T06:21:44.485Z,102055.50
2024-04-22T06:22:46.223Z,102051.78
2024-04-22T06:23:47.883Z,102045.69
2024-04-22T06:24:49.562Z,102053.03
2024-04-22T06:25:51.314Z,102055.44
2024-04-22T06:26:53.043Z,102055.56
2024-04-22T06:27:54.660Z,102042.63
2024-04-22T06:28:56.254Z,102060.34
2024-04-22T06:29:58.017Z,102060.00
2024-04-22T06:30:59.971Z,102056.25
2024-04-22T06:32:04.843Z,102050.56
2024-04-22T06:33:06.552Z,102048.34
2024-04-22T06:34:08.253Z,102051.66
2024-04-22T06:35:09.901Z,102048.97
2024-04-22T06:36:11.809Z,102053.19
2024-04-22T06:37:13.476Z,102051.06
2024-04-22T06:38:15.099Z,102054.38
2024-04-22T06:39:16.751Z,102046.88
2024-04-22T06:40:18.569Z,102045.97
2024-04-22T06:41:20.196Z,102048.56
2024-04-22T06:42:22.164Z,102058.81
2024-04-22T06:43:23.921Z,102050.19
2024-04-22T06:44:25.590Z,102046.75
2024-04-22T06:45:27.271Z,102050.19
2024-04-22T06:46:28.954Z,102048.16
2024-04-22T06:47:33.336Z,102054.28
2024-04-22T06:48:35.044Z,102049.22
2024-04-22T06:49:36.733Z,102053.16
2024-04-22T06:50:38.383Z,102051.56
2024-04-22T06:51:39.985Z,102051.25
2024-04-22T06:52:41.625Z,102054.34
2024-04-22T06:53:43.282Z,102053.06
2024-04-22T06:54:44.904Z,102047.56
2024-04-22T06:55:46.699Z,102048.91
2024-04-22T06:56:48.416Z,102055.16
2024-04-22T06:57:50.351Z,102061.22
2024-04-22T06:58:52.049Z,102055.19
2024-04-22T06:59:53.750Z,102064.34
2024-04-22T07:00:55.471Z,102054.47
2024-04-22T07:01:57.145Z,102059.47
2024-04-22T07:03:01.519Z,102056.28
2024-04-22T07:04:03.449Z,102054.28
2024-04-22T07:05:05.531Z,102051.56
2024-04-22T07:06:07.509Z,102056.75
2024-04-22T07:07:09.184Z,102057.34
2024-04-22T07:08:10.821Z,102046.66
2024-04-22T07:09:12.465Z,102049.41
2024-04-22T07:10:14.123Z,102046.19
2024-04-22T07:11:15.799Z,102050.34
2024-04-22T07:12:17.446Z,102041.75
2024-04-22T07:13:19.188Z,102044.97
2024-04-22T07:14:20.813Z,102044.84
2024-04-22T07:15:22.691Z,102041.75
2024-04-22T07:16:24.360Z,102039.78
2024-04-22T07:17:26.068Z,102040.97
2024-04-22T07:18:30.311Z,102041.84
2024-04-22T07:19:32.065Z,102037.53
2024-04-22T07:20:33.758Z,102041.69
2024-04-22T07:21:35.610Z,102044.47
2024-04-22T07:22:37.222Z,102042.78
2024-04-22T07:23:38.845Z,102041.50
2024-04-22T07:24:54.203Z,102046.84
2024-04-22T07:26:03.586Z,102045.84
2024-04-22T07:27:10.921Z,102046.66
2024-04-22T07:28:18.376Z,102036.63
2024-04-22T07:29:20.563Z,102044.75
2024-04-22T07:30:23.182Z,102050.88
2024-04-22T07:31:25.371Z,102047.16
2024-04-22T07:32:27.654Z,102048.34
2024-04-22T07:33:32.879Z,102051.97
2024-04-22T07:34:35.118Z,102052.25
2024-04-22T07:35:39.313Z,102046.50
2024-04-22T07:36:46.693Z,102058.13
2024-04-22T07:37:48.991Z,102051.59
2024-04-22T07:38:53.077Z,102053.69
2024-04-22T07:40:00.682Z,102055.28
2024-04-22T07:41:02.801Z,102055.03
2024-04-22T07:42:04.650Z,102047.72
2024-04-22T07:43:06.322Z,102050.19
2024-04-22T07:44:08.035Z,102056.94
2024-04-22T07:45:10.577Z,102049.69
2024-04-22T07:46:12.237Z,102042.53
2024-04-22T07:47:13.943Z,102051.16
2024-04-22T07:48:15.647Z,102049.09
2024-04-22T07:49:20.004Z,102052.81
2024-04-22T07:50:21.861Z,102047.22
2024-04-22T07:51:23.606Z,102056.13
2024-04-22T07:52:25.860Z,102055.88
2024-04-22T07:53:28.034Z,102068.59
2024-04-22T07:54:30.195Z,102058.09
2024-04-22T07:55:32.717Z,102059.97
2024-04-22T07:56:35.021Z,102055.72
2024-04-22T07:57:40.468Z,102051.97
2024-04-22T07:58:43.243Z,102052.53
2024-04-22T07:59:45.358Z,102052.88
2024-04-22T08:00:47.466Z,102055.66
2024-04-22T08:01:49.832Z,102052.31
2024-04-22T08:02:52.146Z,102056.03
2024-04-22T08:03:54.392Z,102055.50
2024-04-22T08:04:59.292Z,102060.63
2024-04-22T08:06:05.166Z,102052.59
2024-04-22T08:07:09.767Z,102053.59
2024-04-22T08:08:12.792Z,102051.06
2024-04-22T08:09:14.443Z,102046.69
2024-04-22T08:10:16.345Z,102052.47
2024-04-22T08:11:19.663Z,102056.44
2024-04-22T08:12:21.394Z,102046.88
2024-04-22T08:13:23.091Z,102056.94
2024-04-22T08:14:24.785Z,102049.97
2024-04-22T08:15:26.519Z,102051.41
2024-04-22T08:16:28.275Z,102053.66
2024-04-22T08:17:30.143Z,102051.34
2024-04-22T08:18:31.995Z,102053.84
2024-04-22T08:19:33.645Z,102055.25
2024-04-22T08:20:37.850Z,102055.38
2024-04-22T08:21:39.483Z,102066.19
2024-04-22T08:22:41.183Z,102055.69
2024-04-22T08:23:43.313Z,102055.44
2024-04-22T08:24:44.965Z,102047.94
2024-04-22T08:25:46.650Z,102043.16
2024-04-22T08:26:48.311Z,102059.41
2024-04-22T08:27:49.939Z,102048.84
2024-04-22T08:28:51.655Z,102047.09
2024-04-22T08:29:53.609Z,102045.69
2024-04-22T08:31:00.542Z,102047.19
2024-04-22T08:32:02.175Z,102052.41
2024-04-22T08:33:04.335Z,102049.69
2024-04-22T08:34:06.144Z,102050.41
2024-04-22T08:35:07.776Z,102048.84
2024-04-22T08:36:12.056Z,102049.38
2024-04-22T08:37:15.281Z,102050.47
2024-04-22T08:38:16.936Z,102042.28
2024-04-22T08:39:21.533Z,102044.31
2024-04-22T08:40:26.706Z,102048.31
2024-04-22T08:41:28.781Z,102044.97
2024-04-22T08:42:30.537Z,102039.25
2024-04-22T08:43:32.323Z,102045.84
2024-04-22T08:44:34.019Z,102040.31
2024-04-22T08:45:35.759Z,102042.31
2024-04-22T08:46:37.407Z,102040.75
2024-04-22T08:47:39.390Z,102036.53
2024-04-22T08:48:41.357Z,102042.59
2024-04-22T08:49:43.086Z,102046.72
2024-04-22T08:50:48.135Z,102039.63
2024-04-22T08:51:53.115Z,102037.34
2024-04-22T08:52:56.764Z,102037.25
2024-04-22T08:53:59.514Z,102031.28
2024-04-22T08:55:01.195Z,102032.31
2024-04-22T08:56:03.371Z,102037.72
2024-04-22T08:57:06.103Z,102039.84
2024-04-22T08:58:08.629Z,102040.69
2024-04-22T08:59:18.581Z,102032.50
2024-04-22T09:00:27.299Z,102035.84
2024-04-22T09:01:29.544Z,102031.94
2024-04-22T09:02:31.217Z,102037.41
2024-04-22T09:03:32.827Z,102034.03
2024-04-22T09:04:34.708Z,102031.13
2024-04-22T09:05:37.099Z,102027.25
2024-04-22T09:06:39.066Z,102034.94
2024-04-22T09:07:50.943Z,102040.28
2024-04-22T09:08:52.602Z,102038.88
2024-04-22T09:10:14.697Z,102035.97
2024-04-22T09:11:46.027Z,102029.56
2024-04-22T09:12:39.589Z,102030.84
2024-04-22T09:13:41.468Z,102034.41
2024-04-22T09:14:43.331Z,102024.00
2024-04-22T09:15:45.133Z,102028.69
2024-04-22T09:16:47.159Z,102019.69
2024-04-22T09:17:49.327Z,102023.16
2024-04-22T09:18:51.196Z,102027.97
2024-04-22T09:19:52.888Z,102027.66
2024-04-22T09:21:07.023Z,102031.06
2024-04-22T09:22:09.483Z,102032.47
2024-04-22T09:23:13.802Z,102029.47
2024-04-22T09:24:15.799Z,102024.38
2024-04-22T09:25:18.341Z,102029.16
2024-04-22T09:26:20.220Z,102017.56
2024-04-22T09:27:22.637Z,102015.91
2024-04-22T09:28:28.802Z,102020.66
2024-04-22T09:29:35.477Z,102026.97
2024-04-22T09:30:39.214Z,102021.38
2024-04-22T09:31:43.363Z,102026.47
2024-04-22T09:32:46.532Z,102025.34
2024-04-22T09:33:49.517Z,102024.38
2024-04-22T09:34:54.776Z,102022.16
2024-04-22T09:35:58.989Z,102030.19
2024-04-22T09:37:01.658Z,102032.06
2024-04-22T09:38:05.037Z,102028.41
2024-04-22T09:39:11.624Z,102039.69
2024-04-22T09:40:15.237Z,102036.81
2024-04-22T09:41:19.818Z,102036.88
2024-04-22T09:42:21.891Z,102037.63
2024-04-22T09:43:24.357Z,102043.72
2024-04-22T09:44:27.932Z,102035.31
2024-04-22T09:45:29.654Z,102044.47
2024-04-22T09:46:31.999Z,102035.78
2024-04-22T09:47:35.431Z,102035.88
2024-04-22T09:48:37.834Z,102038.88
2024-04-22T09:49:41.159Z,102042.41
2024-04-22T09:50:42.872Z,102038.34
2024-04-22T09:51:46.283Z,102044.34
2024-04-22T09:52:48.906Z,102038.31
2024-04-22T09:53:52.075Z,102045.22
2024-04-22T09:54:56.586Z,102046.44
2024-04-22T09:56:04.526Z,102056.41
2024-04-22T09:57:07.468Z,102043.81
2024-04-22T09:58:10.725Z,102052.31
2024-04-22T09:59:14.292Z,102053.75
2024-04-22T10:00:16.862Z,102051.41
2024-04-22T10:01:18.824Z,102055.81
2024-04-22T10:02:20.913Z,102050.66
2024-04-22T10:03:22.812Z,102052.38
2024-04-22T10:04:25.024Z,102055.69
2024-04-22T10:05:30.597Z,102054.66
2024-04-22T10:06:33.869Z,102052.44
2024-04-22T10:07:35.650Z,102043.84
2024-04-22T10:08:38.194Z,102042.75
2024-04-22T10:09:39.927Z,102037.13
2024-04-22T10:10:44.612Z,102043.59
2024-04-22T10:11:48.134Z,102042.53
2024-04-22T10:12:50.264Z,102035.19
2024-04-22T10:13:52.141Z,102035.06
2024-04-22T10:15:04.556Z,102026.47
2024-04-22T10:16:06.927Z,102028.25
2024-04-22T10:17:08.794Z,102034.38
2024-04-22T10:18:12.109Z,102035.00
2024-04-22T10:19:14.387Z,102022.63
2024-04-22T10:20:16.441Z,102024.63
2024-04-22T10:21:20.209Z,102024.06
2024-04-22T10:22:24.748Z,102023.78
2024-04-22T10:23:26.690Z,102035.19
2024-04-22T10:24:30.249Z,102027.00
2024-04-22T10:25:32.005Z,102029.09
2024-04-22T10:26:47.698Z,102026.34
2024-04-22T10:27:54.071Z,102022.91
2024-04-22T10:28:55.836Z,102015.38
2024-04-22T10:29:58.029Z,102011.78
2024-04-22T10:30:59.696Z,102012.19
2024-04-22T10:32:01.516Z,102017.59
2024-04-22T10:33:03.704Z,102015.63
2024-04-22T10:34:07.393Z,102008.34
2024-04-22T10:35:09.065Z,102017.75
2024-04-22T10:36:10.788Z,102006.06
2024-04-22T10:37:12.994Z,102012.50
2024-04-22T10:38:14.710Z,102009.03
2024-04-22T10:39:16.361Z,102000.94
2024-04-22T10:40:18.090Z,102008.53
2024-04-22T10:41:19.932Z,101997.06
2024-04-22T10:42:24.170Z,101999.38
2024-04-22T10:43:25.942Z,101993.34
2024-04-22T10:44:27.864Z,101991.75
2024-04-22T10:45:29.553Z,101994.56
2024-04-22T10:46:31.274Z,101994.88
2024-04-22T10:47:34.025Z,102001.59
2024-04-22T10:48:36.934Z,101991.28
2024-04-22T10:49:39.578Z,101999.56
2024-04-22T10:50:41.335Z,101993.59
2024-04-22T10:51:43.047Z,101991.53
2024-04-22T10:52:44.990Z,101997.09
2024-04-22T10:53:46.662Z,101993.00
2024-04-22T10:54:52.729Z,101992.31
2024-04-22T10:55:55.522Z,101998.22
2024-04-22T10:56:57.609Z,102003.38
2024-04-22T10:58:03.069Z,102001.09
2024-04-22T10:59:04.924Z,101997.03
2024-04-22T11:00:09.193Z,102006.59
2024-04-22T11:01:12.747Z,101997.06
2024-04-22T11:02:16.576Z,101997.88
2024-04-22T11:03:18.436Z,102006.22
2024-04-22T11:04:20.215Z,102001.19
2024-04-22T11:05:22.464Z,101996.38
2024-04-22T11:06:24.545Z,102009.22
2024-04-22T11:07:26.292Z,102003.97
2024-04-22T11:08:29.597Z,102014.91
2024-04-22T11:09:32.950Z,102018.72
2024-04-22T11:10:41.361Z,102023.94
2024-04-22T11:11:54.608Z,102014.16
2024-04-22T11:12:56.864Z,102024.72
2024-04-22T11:14:01.274Z,102023.06
2024-04-22T11:15:03.064Z,102011.09
2024-04-22T11:16:07.699Z,102021.72
2024-04-22T11:17:09.478Z,102025.94
2024-04-22T11:18:11.117Z,102034.53
2024-04-22T11:19:12.869Z,102024.69
2024-04-22T11:20:14.751Z,102029.50
2024-04-22T11:21:16.396Z,102033.22
2024-04-22T11:22:18.129Z,102027.41
2024-04-22T11:23:19.868Z,102028.78
2024-04-22T11:24:21.714Z,102034.53
2024-04-22T11:25:23.358Z,102038.53
2024-04-22T11:26:26.403Z,102032.28
2024-04-22T11:27:28.065Z,102033.56
2024-04-22T11:28:30.935Z,102025.03
2024-04-22T11:29:35.500Z,102027.94
2024-04-22T11:30:40.351Z,102020.91
2024-04-22T11:31:43.118Z,102019.91
2024-04-22T11:32:44.829Z,102021.81
2024-04-22T11:33:47.576Z,102012.13
2024-04-22T11:34:49.340Z,102011.75
2024-04-22T11:35:51.285Z,102017.47
2024-04-22T11:36:56.681Z,102024.28
2024-04-22T11:37:58.331Z,102018.81
2024-04-22T11:39:08.871Z,102017.78
2024-04-22T11:40:11.043Z,102013.06
2024-04-22T11:41:12.695Z,102012.03
2024-04-22T11:42:14.381Z,102016.88
2024-04-22T11:43:16.041Z,102015.28
2024-04-22T11:44:17.951Z,102004.88
2024-04-22T11:45:22.216Z,102002.53
2024-04-22T11:46:23.825Z,102005.94
2024-04-22T11:47:25.615Z,102012.56
2024-04-22T11:48:27.335Z,102010.09
2024-04-22T11:49:29.055Z,102007.81
2024-04-22T11:50:30.980Z,101999.84
2024-04-22T11:51:32.779Z,101997.34
2024-04-22T11:52:34.575Z,101998.41